Time;durP1;ratioP1;P1;durP2;ratioP2;P2;SDS_P1;SDS_P2;PMS_P1;PMS_P2;Temp;Humidity;BMP_temperature;BMP_pressure;BME280_temperature;BME280_humidity;BME280_pressure;Samples;Min_cycle;Max_cycle;Signal;HPM_P1;HPM_P2
2022/07/29 00:02:24;;;;;;;3.67;0.80;;;;;;;;;;4873165;29;20061;-64
2022/07/29 00:04:51;;;;;;;4.55;0.82;;;;;;;;;;4867864;29;20169;-64
2022/07/29 00:07:18;;;;;;;1.65;0.70;;;;;;;;;;4872427;29;20061;-64
2022/07/29 00:09:45;;;;;;;2.40;0.80;;;;;;;;;;4867892;29;20057;-64
2022/07/29 00:12:12;;;;;;;2.80;0.93;;;;;;;;;;4872557;29;20052;-64
2022/07/29 00:14:38;;;;;;;2.85;0.70;;;;;;;;;;4884134;29;20084;-64
2022/07/29 00:17:05;;;;;;;2.92;0.90;;;;;;;;;;4873788;29;20105;-65
2022/07/29 00:19:33;;;;;;;1.02;0.68;;;;;;;;;;4868210;29;20059;-64
2022/07/29 00:22:00;;;;;;;3.45;0.90;;;;;;;;;;4872670;29;20061;-64
2022/07/29 00:24:27;;;;;;;1.05;0.80;;;;;;;;;;4868687;29;20049;-65
2022/07/29 00:26:55;;;;;;;1.98;0.80;;;;;;;;;;4873610;29;20133;-64
2022/07/29 00:29:21;;;;;;;4.70;0.93;;;;;;;;;;4868214;29;20061;-65
2022/07/29 00:31:48;;;;;;;1.70;0.80;;;;;;;;;;4873681;29;20124;-66
2022/07/29 00:36:55;;;;;;;0.85;0.63;;;;;;;;;;4872543;29;20057;-64
2022/07/29 00:39:22;;;;;;;3.08;0.70;;;;;;;;;;4868172;29;20077;-65
2022/07/29 00:41:48;;;;;;;3.80;1.10;;;;;;;;;;4873069;29;20064;-66
2022/07/29 00:44:17;;;;;;;1.23;0.68;;;;;;;;;;4887982;29;20086;-66
2022/07/29 00:46:45;;;;;;;2.55;0.88;;;;;;;;;;4870855;29;20045;-65
2022/07/29 00:49:11;;;;;;;1.35;0.80;;;;;;;;;;4888653;29;20064;-64
2022/07/29 00:51:38;;;;;;;4.28;0.98;;;;;;;;;;4867912;29;20126;-66
2022/07/29 00:54:05;;;;;;;2.22;0.85;;;;;;;;;;4873464;29;20117;-63
2022/07/29 00:56:32;;;;;;;0.75;0.70;;;;;;;;;;4869049;29;20109;-66
2022/07/29 00:58:59;;;;;;;3.38;0.80;;;;;;;;;;4878267;29;20082;-67
2022/07/29 01:01:27;;;;;;;1.75;0.90;;;;;;;;;;4871934;29;20078;-66
2022/07/29 01:03:53;;;;;;;;;;;;;;;;;;4862521;29;20071;-65
2022/07/29 01:06:21;;;;;;;2.80;0.60;;;;;;;;;;4886784;29;19932;-66
2022/07/29 01:08:48;;;;;;;2.33;0.83;;;;;;;;;;4876258;29;20113;-64
2022/07/29 01:11:15;;;;;;;2.78;0.80;;;;;;;;;;4871226;29;20313;-65
2022/07/29 01:13:42;;;;;;;2.17;0.73;;;;;;;;;;4875823;29;20048;-66
2022/07/29 01:16:13;;;;;;;1.50;0.80;;;;;;;;;;4871115;29;20052;-64
2022/07/29 01:18:45;;;;;;;2.53;0.70;;;;;;;;;;4876743;29;20057;-64
2022/07/29 01:21:21;;;;;;;1.23;0.63;;;;;;;;;;4871190;29;20057;-64
2022/07/29 01:23:53;;;;;;;2.55;0.73;;;;;;;;;;4875522;29;20094;-64
2022/07/29 01:26:29;;;;;;;0.70;0.60;;;;;;;;;;4870693;29;20143;-65
2022/07/29 01:29:08;;;;;;;2.60;0.85;;;;;;;;;;4863707;29;20064;-65
2022/07/29 01:31:39;;;;;;;2.53;0.70;;;;;;;;;;4855517;29;20069;-65
2022/07/29 01:34:08;;;;;;;1.55;0.93;;;;;;;;;;4875746;29;20057;-65
2022/07/29 01:36:38;;;;;;;4.40;1.10;;;;;;;;;;4870545;29;20090;-64
2022/07/29 01:39:09;;;;;;;3.03;0.70;;;;;;;;;;4875526;29;20052;-64
2022/07/29 01:41:37;;;;;;;2.50;0.80;;;;;;;;;;4872142;29;20107;-65
2022/07/29 01:44:04;;;;;;;;;;;;;;;;;;4857109;29;20064;-63
2022/07/29 01:46:35;;;;;;;3.30;0.90;;;;;;;;;;4857322;29;19928;-63
2022/07/29 01:49:07;;;;;;;1.45;0.70;;;;;;;;;;4869597;29;20056;-63
2022/07/29 01:51:36;;;;;;;6.35;1.05;;;;;;;;;;4875351;29;20065;-63
2022/07/29 01:54:05;;;;;;;5.05;0.77;;;;;;;;;;4871020;29;20053;-63
2022/07/29 01:56:33;;;;;;;1.75;0.80;;;;;;;;;;4875540;29;20053;-64
2022/07/29 01:59:00;;;;;;;1.30;0.82;;;;;;;;;;4870738;29;20065;-63
2022/07/29 02:01:27;;;;;;;2.70;0.80;;;;;;;;;;4874182;29;20053;-64
2022/07/29 02:03:57;;;;;;;2.42;0.75;;;;;;;;;;4862995;29;20057;-65
2022/07/29 02:06:25;;;;;;;2.15;0.80;;;;;;;;;;4868783;29;20064;-63
2022/07/29 02:08:54;;;;;;;1.93;0.83;;;;;;;;;;4861144;29;20054;-64
2022/07/29 02:11:21;;;;;;;1.00;0.73;;;;;;;;;;4867206;29;20064;-63
2022/07/29 02:13:48;;;;;;;2.88;0.80;;;;;;;;;;4867523;29;20063;-63
2022/07/29 02:16:16;;;;;;;3.45;1.00;;;;;;;;;;4856487;29;20129;-63
2022/07/29 02:18:46;;;;;;;1.05;0.60;;;;;;;;;;4855750;29;20053;-63
2022/07/29 02:21:17;;;;;;;2.33;1.00;;;;;;;;;;4866205;29;20037;-64
2022/07/29 02:23:45;;;;;;;1.25;0.70;;;;;;;;;;4875187;29;20061;-64
2022/07/29 02:26:12;;;;;;;1.03;0.77;;;;;;;;;;4868545;29;20057;-63
2022/07/29 02:28:40;;;;;;;2.13;1.27;;;;;;;;;;4874903;29;20053;-65
2022/07/29 02:31:07;;;;;;;1.15;0.80;;;;;;;;;;4861504;29;20117;-67
2022/07/29 02:33:34;;;;;;;0.98;0.70;;;;;;;;;;4863575;29;20164;-66
2022/07/29 02:36:02;;;;;;;1.05;0.80;;;;;;;;;;4869270;29;20162;-66
2022/07/29 02:41:17;;;;;;;2.13;0.80;;;;;;;;;;4854333;29;20423;-64
2022/07/29 02:43:44;;;;;;;4.38;0.70;;;;;;;;;;4869984;29;20056;-65
2022/07/29 02:46:14;;;;;;;2.17;0.70;;;;;;;;;;4874505;29;20137;-63
2022/07/29 02:48:45;;;;;;;2.42;0.88;;;;;;;;;;4865530;29;20135;-63
2022/07/29 02:51:14;;;;;;;2.42;1.20;;;;;;;;;;4874980;29;20045;-64
2022/07/29 02:53:43;;;;;;;1.95;0.98;;;;;;;;;;4860257;29;20068;-64
2022/07/29 02:56:11;;;;;;;1.65;0.68;;;;;;;;;;4855869;29;20065;-64
2022/07/29 02:58:39;;;;;;;1.85;0.70;;;;;;;;;;4850836;29;20081;-64
2022/07/29 03:01:11;;;;;;;1.77;0.77;;;;;;;;;;4855468;29;20057;-64
2022/07/29 03:03:39;;;;;;;4.68;1.05;;;;;;;;;;4857854;29;20065;-64
2022/07/29 03:06:09;;;;;;;1.93;0.90;;;;;;;;;;4872340;29;20048;-64
2022/07/29 03:08:36;;;;;;;1.88;0.90;;;;;;;;;;4892682;29;20328;-66
2022/07/29 03:11:04;;;;;;;1.45;0.80;;;;;;;;;;4886161;29;20056;-65
2022/07/29 03:13:31;;;;;;;2.03;0.70;;;;;;;;;;4878113;29;20060;-64
2022/07/29 03:15:58;;;;;;;1.83;0.80;;;;;;;;;;4869782;29;20059;-65
2022/07/29 03:18:25;;;;;;;2.15;0.85;;;;;;;;;;4876589;29;20059;-65
2022/07/29 03:20:52;;;;;;;1.80;0.77;;;;;;;;;;4867047;29;20053;-64
2022/07/29 03:23:19;;;;;;;1.58;0.70;;;;;;;;;;4858861;29;20060;-64
2022/07/29 03:25:47;;;;;;;2.78;0.95;;;;;;;;;;4857457;29;20057;-64
2022/07/29 03:28:15;;;;;;;2.42;0.80;;;;;;;;;;4872009;29;20057;-64
2022/07/29 03:30:42;;;;;;;2.85;1.10;;;;;;;;;;4892139;29;20112;-64
2022/07/29 03:33:08;;;;;;;2.38;0.82;;;;;;;;;;4877444;29;20056;-65
2022/07/29 03:35:35;;;;;;;3.35;1.00;;;;;;;;;;4893241;29;20053;-64
2022/07/29 03:38:02;;;;;;;4.43;1.13;;;;;;;;;;4883299;29;20053;-63
2022/07/29 03:40:32;;;;;;;2.92;0.90;;;;;;;;;;4857901;29;20081;-65
2022/07/29 03:43:00;;;;;;;1.88;0.82;;;;;;;;;;4854756;29;20061;-64
2022/07/29 03:45:30;;;;;;;1.77;0.73;;;;;;;;;;4876153;29;20081;-65
2022/07/29 03:47:59;;;;;;;1.48;0.80;;;;;;;;;;4892339;29;20305;-66
2022/07/29 03:50:25;;;;;;;5.43;1.00;;;;;;;;;;4872803;29;20067;-67
2022/07/29 03:52:52;;;;;;;2.95;1.10;;;;;;;;;;4876831;29;20057;-63
2022/07/29 03:55:19;;;;;;;2.10;0.75;;;;;;;;;;4861054;29;20056;-64
2022/07/29 03:57:47;;;;;;;1.48;0.82;;;;;;;;;;4858669;29;20045;-64
2022/07/29 04:00:15;;;;;;;1.38;0.90;;;;;;;;;;4853278;29;20069;-62
2022/07/29 04:02:46;;;;;;;4.93;1.00;;;;;;;;;;4857447;29;20072;-63
2022/07/29 04:05:14;;;;;;;1.55;1.00;;;;;;;;;;4855021;29;20143;-63
2022/07/29 04:07:41;;;;;;;1.20;0.70;;;;;;;;;;4875243;29;20053;-67
2022/07/29 04:10:08;;;;;;;1.98;0.70;;;;;;;;;;4874950;29;20068;-65
2022/07/29 04:12:34;;;;;;;4.35;1.40;;;;;;;;;;4856395;29;20137;-67
2022/07/29 04:15:01;;;;;;;1.63;0.80;;;;;;;;;;4858383;29;20098;-64
2022/07/29 04:17:28;;;;;;;2.13;1.17;;;;;;;;;;4863873;29;20057;-63
2022/07/29 04:19:56;;;;;;;1.77;1.10;;;;;;;;;;4875941;29;20061;-63
2022/07/29 04:22:22;;;;;;;3.28;1.17;;;;;;;;;;4866244;29;20065;-63
2022/07/29 04:24:49;;;;;;;2.55;1.20;;;;;;;;;;4857962;29;20140;-66
2022/07/29 04:27:18;;;;;;;1.88;1.05;;;;;;;;;;4855856;29;20072;-64
2022/07/29 04:29:44;;;;;;;;;;;;;;;;;;4858116;29;20060;-67
2022/07/29 04:32:10;;;;;;;1.92;0.90;;;;;;;;;;4861238;29;19942;-67
2022/07/29 04:34:37;;;;;;;1.70;0.90;;;;;;;;;;4857899;29;20121;-65
2022/07/29 04:37:08;;;;;;;1.98;0.93;;;;;;;;;;4861493;29;20061;-65
2022/07/29 04:39:34;;;;;;;3.42;0.90;;;;;;;;;;4858637;29;20073;-63
2022/07/29 04:42:01;;;;;;;2.42;1.08;;;;;;;;;;4861691;29;20065;-64
2022/07/29 04:44:28;;;;;;;1.65;0.88;;;;;;;;;;4859161;29;20065;-68
2022/07/29 04:46:55;;;;;;;1.80;0.95;;;;;;;;;;4879911;29;20108;-66
2022/07/29 04:49:21;;;;;;;2.38;0.90;;;;;;;;;;4879453;29;20140;-66
2022/07/29 04:51:48;;;;;;;2.42;1.00;;;;;;;;;;4857518;29;20063;-66
2022/07/29 04:54:16;;;;;;;2.95;1.02;;;;;;;;;;4861075;29;20064;-68
2022/07/29 04:56:43;;;;;;;2.75;1.15;;;;;;;;;;4868297;29;20135;-63
2022/07/29 04:59:09;;;;;;;1.45;1.00;;;;;;;;;;4895249;29;20056;-64
2022/07/29 05:01:36;;;;;;;2.25;0.95;;;;;;;;;;4874375;29;20049;-65
2022/07/29 05:04:02;;;;;;;2.15;0.90;;;;;;;;;;4867042;29;20057;-66
2022/07/29 05:06:30;;;;;;;3.88;1.25;;;;;;;;;;4865980;29;20061;-65
2022/07/29 05:08:57;;;;;;;3.65;1.30;;;;;;;;;;4873085;29;20097;-66
2022/07/29 05:11:24;;;;;;;2.60;1.10;;;;;;;;;;4875822;29;20045;-67
2022/07/29 05:13:51;;;;;;;2.05;1.25;;;;;;;;;;4864326;29;20061;-66
2022/07/29 05:16:18;;;;;;;1.65;1.02;;;;;;;;;;4866572;29;20057;-67
2022/07/29 05:18:46;;;;;;;3.40;1.20;;;;;;;;;;4851868;29;20052;-66
2022/07/29 05:21:12;;;;;;;3.35;1.10;;;;;;;;;;4873460;29;20104;-63
2022/07/29 05:23:39;;;;;;;3.00;1.00;;;;;;;;;;4864239;29;20057;-64
2022/07/29 05:26:06;;;;;;;1.92;0.82;;;;;;;;;;4872053;29;20057;-66
2022/07/29 05:28:35;;;;;;;4.13;1.20;;;;;;;;;;4872301;29;20053;-66
2022/07/29 05:31:02;;;;;;;6.25;1.60;;;;;;;;;;4868498;29;20143;-63
2022/07/29 05:33:28;;;;;;;2.83;1.17;;;;;;;;;;4872346;29;20067;-63
2022/07/29 05:35:58;;;;;;;2.90;0.93;;;;;;;;;;4864721;29;20048;-66
2022/07/29 05:38:24;;;;;;;2.17;0.90;;;;;;;;;;4873082;29;20166;-62
2022/07/29 05:40:51;;;;;;;3.08;1.30;;;;;;;;;;4864800;29;20067;-67
2022/07/29 05:43:17;;;;;;;2.70;1.13;;;;;;;;;;4875000;29;20048;-64
2022/07/29 05:45:47;;;;;;;7.75;1.45;;;;;;;;;;4871385;29;20060;-65
2022/07/29 05:48:14;;;;;;;5.20;0.93;;;;;;;;;;4893965;29;20060;-66
2022/07/29 05:50:41;;;;;;;3.03;0.88;;;;;;;;;;4874198;29;20060;-62
2022/07/29 05:53:08;;;;;;;3.72;1.17;;;;;;;;;;4868380;29;20052;-66
2022/07/29 05:55:35;;;;;;;1.75;0.95;;;;;;;;;;4880412;29;20060;-63
2022/07/29 05:58:01;;;;;;;2.70;1.25;;;;;;;;;;4869624;29;20099;-63
2022/07/29 06:00:29;;;;;;;6.13;1.40;;;;;;;;;;4893615;29;20056;-62
2022/07/29 06:02:59;;;;;;;3.53;1.10;;;;;;;;;;4869713;29;20072;-66
2022/07/29 06:05:26;;;;;;;1.83;0.98;;;;;;;;;;4871687;29;20063;-63
2022/07/29 06:07:53;;;;;;;2.90;1.08;;;;;;;;;;4877698;29;20169;-63
2022/07/29 06:10:19;;;;;;;2.42;1.25;;;;;;;;;;4874054;29;20056;-62
2022/07/29 06:12:46;;;;;;;3.10;1.00;;;;;;;;;;4875180;29;20057;-67
2022/07/29 06:15:15;;;;;;;2.20;1.10;;;;;;;;;;4867991;29;20057;-67
2022/07/29 06:17:41;;;;;;;2.13;1.00;;;;;;;;;;4877728;29;20049;-64
2022/07/29 06:20:11;;;;;;;1.23;0.77;;;;;;;;;;4874045;29;20069;-63
2022/07/29 06:22:41;;;;;;;1.38;0.82;;;;;;;;;;4877199;29;20061;-64
2022/07/29 06:25:10;;;;;;;1.17;0.80;;;;;;;;;;4888711;29;20140;-65
2022/07/29 06:27:37;;;;;;;1.33;1.05;;;;;;;;;;4893572;29;20056;-62
2022/07/29 06:30:06;;;;;;;1.50;0.85;;;;;;;;;;4870852;29;20076;-63
2022/07/29 06:32:33;;;;;;;3.22;1.20;;;;;;;;;;4878119;29;20063;-63
2022/07/29 06:34:59;;;;;;;2.40;0.95;;;;;;;;;;4872563;29;20053;-62
2022/07/29 06:37:34;;;;;;;1.50;0.98;;;;;;;;;;4877726;29;20045;-64
2022/07/29 06:42:45;;;;;;;2.05;0.95;;;;;;;;;;4877638;29;20053;-63
2022/07/29 06:45:12;;;;;;;2.15;0.90;;;;;;;;;;4875732;29;20095;-63
2022/07/29 06:47:39;;;;;;;1.45;0.90;;;;;;;;;;4874810;29;20081;-62
2022/07/29 06:50:06;;;;;;;2.55;1.45;;;;;;;;;;4876566;29;20068;-63
2022/07/29 06:52:35;;;;;;;1.55;0.82;;;;;;;;;;4872258;29;20060;-63
2022/07/29 06:55:03;;;;;;;5.18;1.05;;;;;;;;;;4877408;29;20138;-67
2022/07/29 06:57:30;;;;;;;3.30;1.20;;;;;;;;;;4872001;29;20061;-63
2022/07/29 06:59:57;;;;;;;2.55;1.10;;;;;;;;;;4875868;29;20048;-64
2022/07/29 07:02:23;;;;;;;6.07;1.73;;;;;;;;;;4872098;29;20065;-62
2022/07/29 07:04:50;;;;;;;2.05;1.20;;;;;;;;;;4877173;29;20052;-62
2022/07/29 07:07:17;;;;;;;2.67;1.20;;;;;;;;;;4871489;29;20052;-63
2022/07/29 07:09:45;;;;;;;3.13;1.15;;;;;;;;;;4876571;29;20065;-64
2022/07/29 07:12:12;;;;;;;3.13;1.55;;;;;;;;;;4871810;29;20068;-64
2022/07/29 07:14:41;;;;;;;2.60;1.30;;;;;;;;;;4876114;29;20128;-62
2022/07/29 07:17:08;;;;;;;1.95;1.00;;;;;;;;;;4871587;29;20056;-63
2022/07/29 07:19:40;;;;;;;1.08;0.77;;;;;;;;;;4876801;29;20064;-62
2022/07/29 07:22:09;;;;;;;2.95;1.08;;;;;;;;;;4856804;29;20049;-62
2022/07/29 07:24:36;;;;;;;1.65;0.88;;;;;;;;;;4875949;29;20049;-62
2022/07/29 07:27:08;;;;;;;1.88;0.90;;;;;;;;;;4853465;29;20112;-63
2022/07/29 07:29:35;;;;;;;1.77;0.88;;;;;;;;;;4874918;29;20073;-64
2022/07/29 07:32:03;;;;;;;3.15;1.00;;;;;;;;;;4871967;29;20057;-66
2022/07/29 07:34:31;;;;;;;;;;;;;;;;;;4876447;29;20109;-63
2022/07/29 07:37:03;;;;;;;3.03;0.98;;;;;;;;;;4891900;29;19924;-63
2022/07/29 07:39:30;;;;;;;1.60;0.90;;;;;;;;;;4871784;29;20056;-63
2022/07/29 07:41:56;;;;;;;5.05;1.08;;;;;;;;;;4877239;29;20060;-63
2022/07/29 07:44:24;;;;;;;2.90;1.10;;;;;;;;;;4871991;29;20057;-63
2022/07/29 07:46:57;;;;;;;2.33;1.20;;;;;;;;;;4876933;29;20049;-65
2022/07/29 07:49:24;;;;;;;2.25;0.80;;;;;;;;;;4872716;29;20121;-65
2022/07/29 07:51:52;;;;;;;2.77;0.90;;;;;;;;;;4877003;29;20060;-63
2022/07/29 07:54:18;;;;;;;1.95;0.90;;;;;;;;;;4872331;29;20088;-64
2022/07/29 07:56:48;;;;;;;3.72;1.17;;;;;;;;;;4891863;29;20064;-62
2022/07/29 07:59:15;;;;;;;1.90;1.10;;;;;;;;;;4887786;29;20045;-65
2022/07/29 08:01:43;;;;;;;5.15;1.45;;;;;;;;;;4877009;29;20056;-64
2022/07/29 08:04:10;;;;;;;3.17;1.25;;;;;;;;;;4874780;29;20056;-62
2022/07/29 08:06:38;;;;;;;4.15;1.40;;;;;;;;;;4879145;29;20092;-62
2022/07/29 08:09:05;;;;;;;3.28;1.30;;;;;;;;;;4875044;29;20056;-64
2022/07/29 08:11:32;;;;;;;2.25;1.30;;;;;;;;;;4879726;29;20052;-63
2022/07/29 08:14:01;;;;;;;3.28;1.27;;;;;;;;;;4872988;29;20056;-65
2022/07/29 08:16:39;;;;;;;;;;;;;;;;;;4878679;29;20135;-64
2022/07/29 08:19:07;;;;;;;4.47;1.45;;;;;;;;;;4875188;29;19934;-67
2022/07/29 08:21:34;;;;;;;1.80;1.00;;;;;;;;;;4895247;29;20116;-66
2022/07/29 08:26:48;;;;;;;2.42;1.08;;;;;;;;;;4878578;29;20068;-64
2022/07/29 08:29:17;;;;;;;3.40;1.20;;;;;;;;;;4878412;29;20065;-66
2022/07/29 08:31:43;;;;;;;4.32;1.60;;;;;;;;;;4878293;29;20052;-67
2022/07/29 08:34:13;;;;;;;2.80;1.00;;;;;;;;;;4894399;29;20097;-66
2022/07/29 08:36:43;;;;;;;3.45;1.20;;;;;;;;;;4874229;29;20048;-64
2022/07/29 08:39:09;;;;;;;2.47;1.20;;;;;;;;;;4879410;29;20053;-63
2022/07/29 08:41:38;;;;;;;4.53;1.25;;;;;;;;;;4874023;29;20049;-67
2022/07/29 08:44:05;;;;;;;5.38;1.73;;;;;;;;;;4893868;29;20048;-62
2022/07/29 08:46:32;;;;;;;2.20;1.20;;;;;;;;;;4889058;29;20064;-62
2022/07/29 08:48:59;;;;;;;2.67;1.20;;;;;;;;;;4878400;29;20071;-63
2022/07/29 08:51:27;;;;;;;4.00;1.35;;;;;;;;;;4889048;29;20064;-63
2022/07/29 08:53:55;;;;;;;3.22;1.20;;;;;;;;;;4894606;29;20052;-63
2022/07/29 08:56:26;;;;;;;2.83;1.55;;;;;;;;;;4890176;29;20048;-63
2022/07/29 08:58:53;;;;;;;2.88;1.55;;;;;;;;;;4894615;29;20135;-63
2022/07/29 09:01:22;;;;;;;4.60;1.60;;;;;;;;;;4874415;29;20049;-63
2022/07/29 09:03:50;;;;;;;6.10;1.73;;;;;;;;;;4888210;29;20044;-64
2022/07/29 09:06:22;;;;;;;4.05;1.83;;;;;;;;;;4879291;29;20087;-65
2022/07/29 09:08:50;;;;;;;7.05;2.20;;;;;;;;;;4879802;29;20139;-65
2022/07/29 09:11:19;;;;;;;2.65;1.45;;;;;;;;;;4878828;29;20123;-66
2022/07/29 09:13:47;;;;;;;5.13;1.50;;;;;;;;;;4877629;29;20056;-63
2022/07/29 09:16:15;;;;;;;2.57;1.30;;;;;;;;;;4879618;29;20055;-63
2022/07/29 09:18:43;;;;;;;5.95;1.70;;;;;;;;;;4876745;29;20062;-64
2022/07/29 09:24:13;;;;;;;3.17;1.35;;;;;;;;;;4876082;29;20124;-63
2022/07/29 09:26:51;;;;;;;3.65;1.42;;;;;;;;;;4860305;29;20049;-63
2022/07/29 09:29:19;;;;;;;5.25;1.77;;;;;;;;;;4873570;29;20060;-63
2022/07/29 09:31:46;;;;;;;7.80;2.50;;;;;;;;;;4879507;29;20064;-65
2022/07/29 09:34:14;;;;;;;5.63;2.03;;;;;;;;;;4875949;29;20121;-63
2022/07/29 09:36:42;;;;;;;2.90;1.40;;;;;;;;;;4881451;29;20116;-63
2022/07/29 09:39:08;;;;;;;6.73;2.43;;;;;;;;;;4874162;29;20060;-63
2022/07/29 09:41:45;;;;;;;5.93;2.08;;;;;;;;;;4877132;29;20305;-63
2022/07/29 09:44:14;;;;;;;5.28;1.20;;;;;;;;;;4881051;29;20139;-63
2022/07/29 09:46:53;;;;;;;4.90;2.00;;;;;;;;;;4874325;29;20063;-63
2022/07/29 09:49:20;;;;;;;6.95;2.88;;;;;;;;;;4896122;29;20060;-63
2022/07/29 09:51:47;;;;;;;4.05;2.13;;;;;;;;;;4873909;29;20065;-62
2022/07/29 09:54:23;;;;;;;4.35;1.40;;;;;;;;;;4879999;29;20100;-63
2022/07/29 09:56:52;;;;;;;2.20;1.13;;;;;;;;;;4871296;29;20120;-63
2022/07/29 09:59:24;;;;;;;6.35;1.30;;;;;;;;;;4868024;29;20144;-63
2022/07/29 10:01:50;;;;;;;7.50;2.30;;;;;;;;;;4872814;29;20093;-65
2022/07/29 10:04:17;;;;;;;6.50;1.85;;;;;;;;;;4879096;29;20064;-63
2022/07/29 10:07:01;;;;;;;5.57;1.55;;;;;;;;;;4876112;29;20152;-63
2022/07/29 10:09:29;;;;;;;3.13;1.38;;;;;;;;;;4879885;29;20045;-64
2022/07/29 10:12:10;;;;;;;4.15;1.58;;;;;;;;;;4874205;29;20049;-63
2022/07/29 10:14:39;;;;;;;4.90;1.60;;;;;;;;;;4873686;29;20151;-64
2022/07/29 10:17:07;;;;;;;3.35;1.27;;;;;;;;;;4878243;29;20052;-63
2022/07/29 10:19:34;;;;;;;4.03;1.33;;;;;;;;;;4874128;29;20059;-63
2022/07/29 10:22:02;;;;;;;4.57;1.30;;;;;;;;;;4876590;29;20053;-63
2022/07/29 10:24:30;;;;;;;6.03;1.20;;;;;;;;;;4871916;29;20072;-63
2022/07/29 10:26:59;;;;;;;2.80;1.10;;;;;;;;;;4879974;29;20163;-63
2022/07/29 10:29:26;;;;;;;3.00;1.02;;;;;;;;;;4873626;29;20102;-64
2022/07/29 10:32:07;;;;;;;5.30;1.30;;;;;;;;;;4880383;29;20048;-64
2022/07/29 10:34:37;;;;;;;4.43;1.00;;;;;;;;;;4884451;29;20057;-64
2022/07/29 10:37:19;;;;;;;4.38;1.42;;;;;;;;;;4877787;29;20076;-64
2022/07/29 10:39:53;;;;;;;3.30;1.15;;;;;;;;;;4874694;29;20052;-64
2022/07/29 10:42:21;;;;;;;1.65;0.90;;;;;;;;;;4876305;29;20072;-64
2022/07/29 10:44:48;;;;;;;1.52;1.05;;;;;;;;;;4871835;29;20127;-63
2022/07/29 10:47:33;;;;;;;4.05;1.00;;;;;;;;;;4895385;29;20163;-63
2022/07/29 10:50:00;;;;;;;3.28;1.23;;;;;;;;;;4872059;29;20112;-63
2022/07/29 10:52:42;;;;;;;3.05;1.23;;;;;;;;;;4877303;29;20076;-63
2022/07/29 10:55:09;;;;;;;5.18;1.63;;;;;;;;;;4873520;29;20053;-64
2022/07/29 10:57:37;;;;;;;4.55;1.10;;;;;;;;;;4878648;29;20057;-64
2022/07/29 11:00:22;;;;;;;4.63;1.27;;;;;;;;;;4878946;29;20088;-64
2022/07/29 11:02:53;;;;;;;6.28;1.40;;;;;;;;;;4893564;29;20085;-64
2022/07/29 11:05:23;;;;;;;6.93;1.30;;;;;;;;;;4878952;29;20060;-64
2022/07/29 11:08:08;;;;;;;2.72;1.02;;;;;;;;;;4872209;29;20053;-64
2022/07/29 11:10:35;;;;;;;3.13;1.50;;;;;;;;;;4878831;29;20092;-65
2022/07/29 11:13:02;;;;;;;4.72;1.33;;;;;;;;;;4871418;29;20049;-64
2022/07/29 11:15:30;;;;;;;3.70;1.10;;;;;;;;;;4876768;29;20089;-65
2022/07/29 11:18:11;;;;;;;3.60;1.00;;;;;;;;;;4871823;29;20049;-64
2022/07/29 11:20:40;;;;;;;2.33;1.42;;;;;;;;;;4879962;29;20056;-64
2022/07/29 11:23:06;;;;;;;;;;;;;;;;;;4877196;29;20055;-65
2022/07/29 11:25:35;;;;;;;3.42;1.27;;;;;;;;;;4877928;29;19928;-65
2022/07/29 11:28:09;;;;;;;3.83;1.10;;;;;;;;;;4866106;29;20067;-65
2022/07/29 11:30:49;;;;;;;4.57;1.50;;;;;;;;;;4876298;29;20056;-65
2022/07/29 11:33:29;;;;;;;2.03;0.88;;;;;;;;;;4868894;29;20104;-65
2022/07/29 11:36:10;;;;;;;6.15;1.20;;;;;;;;;;4878687;29;20516;-65
2022/07/29 11:38:37;;;;;;;1.92;0.80;;;;;;;;;;4871476;29;20056;-65
2022/07/29 11:41:23;;;;;;;7.03;1.60;;;;;;;;;;4874280;29;20067;-65
2022/07/29 11:43:52;;;;;;;2.50;1.08;;;;;;;;;;4870587;29;20132;-65
2022/07/29 11:46:39;;;;;;;2.10;1.00;;;;;;;;;;4878245;29;20052;-65
2022/07/29 11:49:07;;;;;;;1.70;1.00;;;;;;;;;;4870114;29;20060;-65
2022/07/29 11:51:34;;;;;;;4.00;1.10;;;;;;;;;;4883671;29;20064;-65
2022/07/29 11:54:01;;;;;;;2.38;1.00;;;;;;;;;;4867389;29;20052;-65
2022/07/29 11:56:31;;;;;;;3.47;1.17;;;;;;;;;;4875367;29;20055;-65
2022/07/29 11:59:04;;;;;;;2.97;1.35;;;;;;;;;;4870329;29;20073;-66
2022/07/29 12:01:31;;;;;;;3.42;1.02;;;;;;;;;;4889256;29;20089;-66
2022/07/29 12:04:03;;;;;;;7.55;1.48;;;;;;;;;;4866172;29;20194;-71
2022/07/29 14:59:01;;;;;;;7.25;2.13;;;;;;;;;;5940349;23;20940;31
2022/07/29 15:01:29;;;;;;;5.90;2.20;;;;;;;;;;4827923;29;20061;-64
2022/07/29 15:03:59;;;;;;;;;;;;;;;;;;4827596;29;20062;-63
2022/07/29 15:06:27;;;;;;;3.97;2.10;;;;;;;;;;4901045;23;19927;-62
2022/07/29 15:08:53;;;;;;;8.80;2.83;;;;;;;;;;4888780;29;20056;-61
2022/07/29 15:11:20;;;;;;;7.47;2.50;;;;;;;;;;4873818;29;20057;-61
2022/07/29 15:13:47;;;;;;;3.80;1.85;;;;;;;;;;4872911;29;20052;-59
2022/07/29 15:16:13;;;;;;;4.95;1.60;;;;;;;;;;4864977;29;20063;-63
2022/07/29 15:18:41;;;;;;;3.70;1.90;;;;;;;;;;4866992;29;20081;-60
2022/07/29 15:21:07;;;;;;;4.57;2.00;;;;;;;;;;4867491;29;20044;-63
2022/07/29 15:23:35;;;;;;;3.70;1.90;;;;;;;;;;4860295;29;20053;-63
2022/07/29 15:26:02;;;;;;;3.40;1.73;;;;;;;;;;4868413;29;20057;-64
2022/07/29 15:28:29;;;;;;;4.45;1.60;;;;;;;;;;4887262;29;20382;-63
2022/07/29 15:30:55;;;;;;;6.80;1.70;;;;;;;;;;4868822;29;20064;-62
2022/07/29 15:33:22;;;;;;;5.03;1.63;;;;;;;;;;4868058;29;20055;-64
2022/07/29 15:35:52;;;;;;;3.60;1.60;;;;;;;;;;4868444;29;20052;-64
2022/07/29 15:38:18;;;;;;;7.97;1.80;;;;;;;;;;4861305;29;20056;-64
2022/07/29 15:40:46;;;;;;;3.10;1.48;;;;;;;;;;4859890;29;20120;-64
2022/07/29 15:43:12;;;;;;;4.45;1.92;;;;;;;;;;4878085;29;20063;-60
2022/07/29 15:45:39;;;;;;;3.55;1.55;;;;;;;;;;4869455;29;20048;-61
2022/07/29 15:48:07;;;;;;;3.20;1.40;;;;;;;;;;4868542;29;20079;-64
2022/07/29 15:50:33;;;;;;;8.80;1.60;;;;;;;;;;4862051;29;20133;-60
2022/07/29 15:53:01;;;;;;;6.38;1.70;;;;;;;;;;4869021;29;20053;-60
2022/07/29 15:55:28;;;;;;;;;;;;;;;;;;4862479;29;20057;-61
2022/07/29 15:57:54;;;;;;;5.13;1.10;;;;;;;;;;4866726;29;19928;-58
2022/07/29 16:00:21;;;;;;;3.72;1.42;;;;;;;;;;4862553;29;20195;-62
2022/07/29 16:02:47;;;;;;;6.03;1.80;;;;;;;;;;4884962;23;20068;-60
2022/07/29 16:05:14;;;;;;;5.97;1.50;;;;;;;;;;4853069;29;20061;-61
2022/07/29 16:07:41;;;;;;;5.40;1.50;;;;;;;;;;4864929;29;20089;-63
2022/07/29 16:10:09;;;;;;;3.33;1.30;;;;;;;;;;4869136;29;20154;-61
2022/07/29 16:12:36;;;;;;;4.20;1.45;;;;;;;;;;4876603;29;20049;-61
2022/07/29 16:15:02;;;;;;;5.88;1.63;;;;;;;;;;4862795;29;20109;-61
2022/07/29 16:17:29;;;;;;;4.60;1.60;;;;;;;;;;4857710;29;20049;-61
2022/07/29 16:19:56;;;;;;;12.20;1.80;;;;;;;;;;4885909;29;20053;-62
2022/07/29 16:22:22;;;;;;;2.72;1.20;;;;;;;;;;4858538;29;20049;-60
2022/07/29 16:24:49;;;;;;;3.67;1.40;;;;;;;;;;4865970;29;20049;-64
2022/07/29 16:27:23;;;;;;;4.63;1.17;;;;;;;;;;4864853;29;20073;-63
2022/07/29 16:29:50;;;;;;;4.00;1.58;;;;;;;;;;4862572;29;20057;-64
2022/07/29 16:32:16;;;;;;;3.45;1.73;;;;;;;;;;4865044;29;20067;-64
2022/07/29 16:34:43;;;;;;;6.35;1.60;;;;;;;;;;4880385;29;20061;-64
2022/07/29 16:37:11;;;;;;;3.60;1.60;;;;;;;;;;4875555;29;20061;-59
2022/07/29 16:39:37;;;;;;;8.02;1.70;;;;;;;;;;4860540;29;20057;-59
2022/07/29 16:42:04;;;;;;;7.28;1.75;;;;;;;;;;4868452;29;20064;-60
2022/07/29 16:44:33;;;;;;;4.65;1.88;;;;;;;;;;4866231;29;20160;-60
2022/07/29 16:47:00;;;;;;;12.02;2.30;;;;;;;;;;4864548;29;20080;-64
2022/07/29 16:49:27;;;;;;;4.40;1.45;;;;;;;;;;4871229;29;20061;-64
2022/07/29 16:51:53;;;;;;;9.18;1.80;;;;;;;;;;4861735;29;20368;-64
2022/07/29 16:54:23;;;;;;;1.70;1.10;;;;;;;;;;4868759;29;20057;-62
2022/07/29 16:56:49;;;;;;;7.07;1.63;;;;;;;;;;4880287;29;20061;-62
2022/07/29 16:59:16;;;;;;;3.00;1.52;;;;;;;;;;4874890;29;20056;-60
2022/07/29 17:01:44;;;;;;;4.60;1.70;;;;;;;;;;4860263;29;20049;-63
2022/07/29 17:04:13;;;;;;;4.32;1.58;;;;;;;;;;4856770;29;20145;-63
2022/07/29 17:06:40;;;;;;;5.82;1.63;;;;;;;;;;4850876;29;20057;-62
2022/07/29 17:09:08;;;;;;;7.18;1.42;;;;;;;;;;4860454;29;20053;-59
2022/07/29 17:11:35;;;;;;;2.67;1.20;;;;;;;;;;4870209;29;20133;-59
2022/07/29 17:14:01;;;;;;;4.30;1.52;;;;;;;;;;4855395;29;20112;-58
2022/07/29 17:16:29;;;;;;;3.55;1.17;;;;;;;;;;4855400;29;20065;-59
2022/07/29 17:18:57;;;;;;;4.37;1.47;;;;;;;;;;4852104;29;20148;-59
2022/07/29 17:21:24;;;;;;;2.92;1.35;;;;;;;;;;4854739;29;20122;-60
2022/07/29 17:23:51;;;;;;;3.53;1.50;;;;;;;;;;4867994;29;20065;-60
2022/07/29 17:26:21;;;;;;;4.53;1.33;;;;;;;;;;4854526;29;20125;-61
2022/07/29 17:28:48;;;;;;;2.72;1.17;;;;;;;;;;4848331;29;20064;-59
2022/07/29 17:31:17;;;;;;;6.78;1.35;;;;;;;;;;4853765;29;20057;-59
2022/07/29 17:33:43;;;;;;;1.70;1.05;;;;;;;;;;4847878;29;20045;-62
2022/07/29 17:36:24;;;;;;;4.05;1.10;;;;;;;;;;4870839;29;20049;-62
2022/07/29 17:38:51;;;;;;;3.10;1.20;;;;;;;;;;4867288;29;20053;-59
2022/07/29 17:41:18;;;;;;;3.53;1.20;;;;;;;;;;4852768;29;20045;-59
2022/07/29 17:43:46;;;;;;;3.47;1.20;;;;;;;;;;4854462;29;20317;-60
2022/07/29 17:46:12;;;;;;;4.53;1.48;;;;;;;;;;4851919;29;20045;-60
2022/07/29 17:48:42;;;;;;;3.25;1.27;;;;;;;;;;4859438;29;20067;-60
2022/07/29 17:51:09;;;;;;;3.10;1.20;;;;;;;;;;4848020;29;20057;-60
2022/07/29 17:53:38;;;;;;;3.40;1.20;;;;;;;;;;4872300;29;20060;-63
2022/07/29 17:56:09;;;;;;;2.95;1.33;;;;;;;;;;4852296;29;20073;-63
2022/07/29 17:58:36;;;;;;;3.17;1.20;;;;;;;;;;4863407;29;20063;-63
2022/07/29 18:01:03;;;;;;;3.25;1.33;;;;;;;;;;4868381;29;20061;-63